Flight Track Log - Related Links

Times and Time Zones

All times are in EST time to prevent confusion due to time zone crossing. See the AAY843 flight status page for this flight to view local times or setup timezone preferences in your user account.

Time Position Orientation Groundspeed Altitude Reporting Facility
EST Latitude Longitude Course Direction KTS MPH feet Rate Location/Type
Thu 12:16:10 PM 43.0850 -76.1903 208° Southwest 208 239 2,900  Level Boston Center
Thu 12:16:28 PM 43.0656 -76.2047 208° Southwest 240 276 3,700 3,462 Climbing Boston Center
Thu 12:17:28 PM 43.0069 -76.2589 214° Southwest 270 311 7,400 3,054 Climbing Boston Center
Thu 12:18:20 PM 42.9650 -76.2983 215° Southwest 266 306 9,400 1,368 Climbing Boston Center
Thu 12:19:22 PM 42.8906 -76.3603 211° Southwest 321 369 10,000 1,171 Climbing Boston Center
Thu 12:20:23 PM 42.7878 -76.4464 212° Southwest 366 421 11,800 2,146 Climbing Boston Center
Thu 12:21:25 PM 42.7003 -76.5214 212° Southwest 372 428 14,400 2,439 Climbing Boston Center
Thu 12:22:26 PM 42.6061 -76.5994 211° Southwest 391 450 16,800 1,289 Climbing Boston Center
Thu 12:23:26 PM 42.5119 -76.6792 212° Southwest 399 459 17,000 700 Climbing Boston Center
Thu 12:24:26 PM 42.4178 -76.7592 212° Southwest 400 460 18,200 1,548 Climbing Boston Center
Thu 12:25:30 PM 42.3217 -76.8389 212° Southwest 403 464 20,200 1,839 Climbing Boston Center
Thu 12:26:30 PM 42.2225 -76.9208 211° Southwest 410 472 22,000 1,438 Climbing Boston Center
Thu 12:27:31 PM 42.1231 -77.0022 211° Southwest 415 478 23,100 1,587 Climbing Boston Center
Thu 12:28:31 PM 42.0000 -76.9936 177° South 464 534 25,200 1,839 Climbing Boston Center
Thu 12:29:35 PM 41.8767 -76.9508 166° South 458 527 26,900 1,632 Climbing Boston Center
Thu 12:30:36 PM 41.7292 -76.9033 166° South 453 521 28,600 1,438 Climbing Boston Center
Thu 12:31:36 PM 41.6239 -76.8678 166° South 450 518 29,800 613 Climbing Boston Center
Thu 12:32:53 PM 41.4428 -76.8125 167° South 454 522 30,000 88 Climbing New York Center
Thu 12:33:53 PM 41.3150 -76.7844 171° South 465 535 30,000  Level New York Center
Thu 12:34:53 PM 41.1967 -76.8153 191° South 444 511 30,000  Level New York Center
Thu 12:35:53 PM 41.0886 -76.8497 194° South 444 511 30,000  Level New York Center
Thu 12:36:53 PM 40.9703 -76.8831 192° South 444 511 30,000  Level New York Center
Thu 12:37:53 PM 40.8539 -76.9167 192° South 444 511 30,000  Level New York Center
Thu 12:38:53 PM 40.7375 -76.9500 192° South 438 504 30,000  Level New York Center
Thu 12:39:53 PM 40.6250 -76.9919 196° South 432 497 30,000  Level New York Center
Thu 12:40:53 PM 40.5158 -77.0447 200° South 427 491 30,000  Level New York Center
Thu 12:41:53 PM 40.4050 -77.0919 198° South 427 491 30,000  Level New York Center
Thu 12:43:27 PM 40.2283 -77.1756 200° South 421 484 30,000  Level Washington Center
Thu 12:44:25 PM 40.1297 -77.2194 199° South 421 484 30,000  Level Washington Center
Thu 12:45:26 PM 40.0208 -77.2656 198° South 421 484 30,000  Level Washington Center
Thu 12:46:26 PM 39.9117 -77.3144 199° South 421 484 30,000  Level Washington Center
Thu 12:47:26 PM 39.8047 -77.3661 200° South 421 484 30,000  Level Washington Center
Thu 12:48:27 PM 39.6958 -77.4119 198° South 416 479 30,000 246 Level Washington Center
Thu 12:49:28 PM 39.5886 -77.4631 200° South 416 479 30,500 915 Climbing Washington Center
Thu 12:50:25 PM 39.4692 -77.5136 198° South 410 472 31,800 756 Climbing Washington Center
Thu 12:51:27 PM 39.3789 -77.5569 200° South 401 461 32,000 98 Climbing Washington Center
Thu 12:52:27 PM 39.2675 -77.6075 199° South 391 450 32,000  Level Washington Center
Thu 12:53:25 PM 39.1647 -77.6528 199° South 391 450 32,000  Level Washington Center
Thu 12:54:26 PM 39.0597 -77.6981 199° South 391 450 32,000  Level Washington Center
Thu 12:55:27 PM 38.9567 -77.7431 199° South 396 456 32,000  Level Washington Center
Thu 12:56:28 PM 38.8642 -77.7831 199° South 396 456 32,000  Level Washington Center
Thu 12:57:25 PM 38.7550 -77.8331 200° South 403 464 32,000  Level Washington Center
Thu 12:58:26 PM 38.6539 -77.8781 199° South 403 464 32,000  Level Washington Center
Thu 12:59:27 PM 38.5489 -77.9225 198° South 403 464 32,000  Level Washington Center
Thu 01:00:25 PM 38.4439 -77.9669 198° South 403 464 32,000  Level Washington Center
Thu 01:01:26 PM 38.3386 -78.0111 198° South 403 464 32,000  Level Washington Center
Thu 01:02:27 PM 38.2356 -78.0581 200° South 403 464 32,000  Level Washington Center
Thu 01:03:27 PM 38.1281 -78.1047 199° South 403 464 32,000  Level Washington Center
Thu 01:04:26 PM 38.0272 -78.1489 199° South 403 464 32,000  Level Washington Center
Thu 01:05:27 PM 37.9203 -78.1767 192° South 403 464 32,000  Level Washington Center
Thu 01:06:28 PM 37.8047 -78.2147 195° South 398 458 32,000  Level Washington Center
Thu 01:07:25 PM 37.6953 -78.2506 195° South 398 458 32,000  Level Washington Center
Thu 01:08:26 PM 37.5864 -78.2806 192° South 398 458 32,000  Level Washington Center
Thu 01:09:27 PM 37.4792 -78.3136 194° South 398 458 32,000  Level Washington Center
Thu 01:10:25 PM 37.3700 -78.3436 192° South 398 458 32,000  Level Washington Center
Thu 01:11:26 PM 37.2692 -78.3739 193° South 398 458 32,000  Level Washington Center
Thu 01:12:27 PM 37.1600 -78.4064 193° South 398 458 32,000  Level Washington Center
Thu 01:13:27 PM 37.0528 -78.4389 194° South 398 458 32,000  Level Washington Center
Thu 01:14:27 PM 36.9414 -78.4711 193° South 398 458 32,000  Level Washington Center
Thu 01:15:25 PM 36.8236 -78.5058 193° South 398 458 32,000  Level Washington Center
Thu 01:16:26 PM 36.7167 -78.5381 194° South 398 458 32,000  Level Washington Center
Thu 01:17:27 PM 36.6178 -78.5678 194° South 398 458 32,000  Level Washington Center
Thu 01:18:27 PM 36.5164 -78.6158 201° Southwest 398 458 32,000  Level Washington Center
Thu 01:19:26 PM 36.4211 -78.6661 203° Southwest 393 452 32,000  Level Washington Center
Thu 01:20:26 PM 36.3239 -78.7192 204° Southwest 388 447 32,000  Level Washington Center
Thu 01:21:27 PM 36.2244 -78.7719 203° Southwest 388 447 32,000  Level Washington Center
Thu 01:22:25 PM 36.1250 -78.8219 202° Southwest 383 441 32,000  Level Washington Center
Thu 01:23:26 PM 36.0275 -78.8744 204° Southwest 383 441 32,000  Level Washington Center
Thu 01:24:27 PM 35.9281 -78.9242 202° Southwest 383 441 32,000  Level Washington Center
Thu 01:25:25 PM 35.8286 -78.9736 202° Southwest 383 441 32,000  Level Washington Center
Thu 01:26:26 PM 35.7311 -79.0258 204° Southwest 383 441 32,000  Level Washington Center
Thu 01:27:26 PM 35.6339 -79.0778 203° Southwest 383 441 32,000  Level Washington Center
Thu 01:28:27 PM 35.5236 -79.1317 202° Southwest 383 441 32,000  Level Washington Center
Thu 01:29:25 PM 35.4283 -79.1836 204° Southwest 383 441 32,000  Level Washington Center
Thu 01:30:25 PM 35.3286 -79.2325 202° Southwest 383 441 32,000  Level Washington Center
Thu 01:31:26 PM 35.2311 -79.2817 202° Southwest 383 441 32,000  Level Washington Center
Thu 01:32:26 PM 35.1336 -79.3331 203° Southwest 383 441 32,000  Level Washington Center
Thu 01:33:27 PM 35.0339 -79.3817 202° Southwest 383 441 32,000  Level Washington Center
Thu 01:37:09 PM 34.6750 -79.5628 203° Southwest 392 451 32,000  Level Jacksonville Center
Thu 01:38:09 PM 34.5761 -79.6119 202° Southwest 392 451 32,000  Level Jacksonville Center
Thu 01:39:09 PM 34.4794 -79.6611 203° Southwest 387 445 32,000  Level Jacksonville Center
Thu 01:40:09 PM 34.3783 -79.7100 202° Southwest 392 451 32,000  Level Jacksonville Center
Thu 01:41:09 PM 34.2753 -79.7642 203° Southwest 385 443 32,000  Level Jacksonville Center
Thu 01:42:09 PM 34.1786 -79.8128 203° Southwest 385 443 32,000  Level Jacksonville Center
Thu 01:43:09 PM 34.0775 -79.8614 202° Southwest 385 443 32,000  Level Jacksonville Center
Thu 01:44:09 PM 33.9786 -79.9100 202° Southwest 390 449 32,000  Level Jacksonville Center
Thu 01:45:09 PM 33.8794 -79.9608 203° Southwest 390 449 32,000  Level Jacksonville Center
Thu 01:46:09 PM 33.7806 -80.0092 202° Southwest 390 449 32,000  Level Jacksonville Center
Thu 01:47:09 PM 33.6794 -80.0597 203° Southwest 390 449 32,000  Level Jacksonville Center
Thu 01:48:09 PM 33.5803 -80.1078 202° Southwest 390 449 32,000  Level Jacksonville Center
Thu 01:49:09 PM 33.5003 -80.1703 213° Southwest 390 449 32,000  Level Jacksonville Center
Thu 01:50:09 PM 33.4142 -80.2400 214° Southwest 384 442 32,000  Level Jacksonville Center
Thu 01:51:09 PM 33.3300 -80.3122 216° Southwest 384 442 32,000  Level Jacksonville Center
Thu 01:52:09 PM 33.2439 -80.3842 215° Southwest 384 442 32,000  Level Jacksonville Center
Thu 01:53:09 PM 33.1556 -80.4561 214° Southwest 384 442 32,000  Level Jacksonville Center
Thu 01:54:09 PM 33.0672 -80.5278 214° Southwest 389 448 32,000  Level Jacksonville Center
Thu 01:55:09 PM 32.9828 -80.5969 214° Southwest 389 448 32,000  Level Jacksonville Center
Thu 01:56:09 PM 32.8944 -80.6683 214° Southwest 389 448 32,000  Level Jacksonville Center
Thu 01:57:09 PM 32.8058 -80.7400 214° Southwest 395 455 32,000  Level Jacksonville Center
Thu 01:58:09 PM 32.7172 -80.8111 214° Southwest 395 455 32,000  Level Jacksonville Center
Thu 01:59:09 PM 32.6286 -80.8847 215° Southwest 395 455 32,000  Level Jacksonville Center
Thu 02:00:09 PM 32.5400 -80.9556 214° Southwest 395 455 32,000  Level Jacksonville Center
Thu 02:01:09 PM 32.4514 -81.0264 214° Southwest 395 455 32,000  Level Jacksonville Center
Thu 02:02:09 PM 32.3625 -81.0972 214° Southwest 395 455 32,000  Level Jacksonville Center
Thu 02:03:09 PM 32.2739 -81.1678 214° Southwest 395 455 32,000  Level Jacksonville Center
Thu 02:04:09 PM 32.1828 -81.2406 214° Southwest 395 455 32,000  Level Jacksonville Center
Thu 02:05:09 PM 32.0919 -81.3133 214° Southwest 395 455 32,000  Level Jacksonville Center
Thu 02:06:09 PM 31.9947 -81.3908 214° Southwest 395 455 32,000  Level Jacksonville Center
Thu 02:07:09 PM 31.9036 -81.4608 213° Southwest 401 461 32,000  Level Jacksonville Center
Thu 02:08:09 PM 31.8106 -81.5333 214° Southwest 401 461 32,000  Level Jacksonville Center
Thu 02:09:09 PM 31.7278 -81.6006 215° Southwest 406 467 32,000  Level Jacksonville Center
Thu 02:10:09 PM 31.6367 -81.6725 214° Southwest 396 456 32,000  Level Jacksonville Center
Thu 02:11:09 PM 31.5392 -81.7494 214° Southwest 396 456 32,000  Level Jacksonville Center
Thu 02:12:09 PM 31.4353 -81.7992 202° Southwest 396 456 32,000  Level Jacksonville Center
Thu 02:13:09 PM 31.3228 -81.8347 195° South 404 465 32,000  Level Jacksonville Center
Thu 02:14:09 PM 31.2144 -81.8675 195° South 409 471 32,000  Level Jacksonville Center
Thu 02:15:09 PM 31.1061 -81.9003 195° South 414 476 32,000  Level Jacksonville Center
Thu 02:16:09 PM 30.9958 -81.9353 195° South 414 476 32,000  Level Jacksonville Center
Thu 02:17:09 PM 30.8875 -81.9656 193° South 414 476 32,000  Level Jacksonville Center
Thu 02:18:09 PM 30.7769 -82.0028 196° South 414 476 32,000  Level Jacksonville Center
Thu 02:19:09 PM 30.6667 -82.0328 193° South 409 471 32,000  Level Jacksonville Center
Thu 02:20:09 PM 30.5583 -82.0675 195° South 409 471 32,000  Level Jacksonville Center
Thu 02:22:09 PM 30.3497 -82.1247 193° South 415 478 32,000  Level Jacksonville Center
Thu 02:23:09 PM 30.2414 -82.1567 194° South 415 478 32,000  Level Jacksonville Center
Thu 02:24:09 PM 30.1353 -82.1914 196° South 410 472 32,000  Level Jacksonville Center
Thu 02:25:09 PM 30.0267 -82.2233 194° South 410 472 32,000 -250 Level Jacksonville Center
Thu 02:26:09 PM 29.9183 -82.2600 196° South 410 472 31,500 -1,200 Descending Jacksonville Center
Thu 02:27:09 PM 29.8100 -82.2917 194° South 410 472 29,600 -1,900 Descending Jacksonville Center
Thu 02:28:09 PM 29.6933 -82.3236 193° South 417 480 27,700 -2,000 Descending Jacksonville Center
Thu 02:29:09 PM 29.5722 -82.3528 192° South 433 498 25,600 -2,150 Descending Jacksonville Center
Thu 02:30:09 PM 29.4447 -82.3392 175° South 447 514 23,400 -2,200 Descending Jacksonville Center
Thu 02:31:09 PM 29.3236 -82.3233 173° South 442 509 21,200 -2,200 Descending Jacksonville Center
Thu 02:32:09 PM 29.2025 -82.3122 175° South 442 509 19,000 -1,950 Descending Jacksonville Center
Thu 02:33:09 PM 29.0856 -82.2986 174° South 436 502 17,300 -1,850 Descending Jacksonville Center
Thu 02:34:09 PM 28.9769 -82.2850 174° South 416 479 15,300 -1,950 Descending Jacksonville Center
Thu 02:35:09 PM 28.8683 -82.2714 174° South 405 466 13,400 -726 Descending Jacksonville Center
Thu 02:37:19 PM 28.6333 -82.2500 175° South 377 434 13,000 -673 Descending Tampa TRACON
Thu 02:38:25 PM 28.5167 -82.2667 187° South 378 435 11,200 -1,381 Descending Tampa TRACON
Thu 02:39:25 PM 28.4833 -82.3833 252° West 374 430 10,100 -632 Descending Tampa TRACON
Thu 02:40:19 PM 28.4833 -82.4833 270° West 365 420 10,000 -316 Descending Tampa TRACON
Thu 02:41:19 PM 28.4833 -82.5833 270° West 288 331 9,500 -800 Descending Tampa TRACON
Thu 02:42:19 PM 28.4833 -82.6667 270° West 276 318 8,400 -1,200 Descending Tampa TRACON
Thu 02:43:19 PM 28.5000 -82.7500 283° West 288 331 7,100 -619 Descending Tampa TRACON
Thu 02:44:25 PM 28.4500 -82.8167 230° Southwest 263 303 7,100  Level Tampa TRACON
Thu 02:45:19 PM 28.3833 -82.8500 204° Southwest 268 308 7,100  Level Tampa TRACON
Thu 02:46:26 PM 28.3167 -82.8833 204° Southwest 267 307 7,100 -94 Level Tampa TRACON
Thu 02:47:26 PM 28.2500 -82.9167 204° Southwest 267 307 6,900 -895 Descending Tampa TRACON
Thu 02:48:20 PM 28.1833 -82.9500 204° Southwest 272 313 5,400 -1,400 Descending Tampa TRACON
Thu 02:49:26 PM 28.1000 -82.9667 190° South 253 291 4,100 -619 Descending Tampa TRACON
Thu 02:50:26 PM 28.0333 -82.9667 180° South 200 230 4,100  Level Tampa TRACON
Thu 02:51:26 PM 27.9833 -82.9667 180° South 201 231 4,100  Level Tampa TRACON
Thu 02:52:38 PM 27.9167 -82.9667 180° South 207 238 4,100  Level Tampa TRACON
Thu 02:53:38 PM 27.8667 -82.9667 180° South 207 238 4,100  Level Tampa TRACON
Thu 02:54:26 PM 27.8167 -82.9667 180° South 205 236 4,100 -111 Level Tampa TRACON
Thu 02:55:26 PM 27.7667 -82.9500 164° South 211 243 3,900 -476 Descending Tampa TRACON
Thu 02:56:32 PM 27.7167 -82.9000 138° Southeast 204 235 3,100 -619 Descending Tampa TRACON
Thu 02:57:32 PM 27.7167 -82.8500 90° East 207 238 2,600 -550 Descending Tampa TRACON
Thu 02:58:32 PM 27.7167 -82.7833 90° East 195 224 2,000 -298 Descending Tampa TRACON
Thu 02:59:33 PM 27.7167 -82.7167 90° East 191 220 2,000 -55 Level Tampa TRACON
Thu 03:00:21 PM 27.7333 -82.6833 61° Northeast 170 196 1,900  Descending Tampa TRACON
Thu 03:01:21 PM 27.7667 -82.6667 24° Northeast 178 205 2,000 -150 Climbing Tampa TRACON
Thu 03:02:21 PM 27.8167 -82.6667 360° North 177 204 1,600 -550 Descending Tampa TRACON
Thu 03:03:21 PM 27.8667 -82.6833 344° North 145 167 900 -700 Descending Tampa TRACON

Login

Don't have an account? Register now (free) for customized features, flight alerts, and more!